»·PEaware :: N8068C KSAN-KBUR

N8068C :: KSAN-KBUR

FLIGHT INFORMATION

Flight Status: Arrived
Operator: Privately registered:
United States
More flights under this callsign
Pilot: Ryan B. (29)
Aircraft: Unknown
(LNC4)
More flights by this aircraft type
Origin: KSAN San Diego Intl-Lindbergh
United States
Destination: KBUR Bob Hope-Burbank
United States
More flights between these airports :: More routes between these airports
Route: +OCN V23 POPPR SMO SILEX
File this flight plan on PilotEdge
Remarks: charts / V /
Altitude:
(Current/Filed)
6,000ft
Speed:
(Current/Filed)
220kts
Departed: 13-Oct-11 10:43 AM
Arrived: 13-Oct-11 11:26 AM
Distance/Time
Traveled:
106nm/0:43
Distance/Time
To Go:
Arrived

Flight Plot

Page will automatically refresh every two minutes.

Flight plan parsing failed; only flown route is shown


Map Options




Map Legend


Flown Route
Filed Route
Departure Airport
Arrival Airport
Navaid (VOR, NDB)
Fix

Horizontal Profiles

Position Reports

Time Latitude Longitude Heading Altitude Ground
Speed
13-Oct-11 10:34 32.733196 -117.181061 15 19ft 0kts
13-Oct-11 10:35 32.733197 -117.181061 15 19ft 0kts
13-Oct-11 10:36 32.733197 -117.181061 15 19ft 0kts
13-Oct-11 10:38 32.732964 -117.180652 130 19ft 14kts
13-Oct-11 10:39 32.731034 -117.175409 111 19ft 12kts
13-Oct-11 10:40 32.734711 -117.193705 278 206ft 122kts
13-Oct-11 10:41 32.763239 -117.228238 321 1286ft 173kts
13-Oct-11 10:42 32.806757 -117.264378 328 1997ft 211kts
13-Oct-11 10:43 32.868145 -117.286010 342 2000ft 241kts
13-Oct-11 10:44 32.930381 -117.307649 343 2851ft 213kts
13-Oct-11 10:45 32.984500 -117.326964 344 4309ft 193kts
13-Oct-11 10:46 33.034074 -117.344672 343 5776ft 177kts
13-Oct-11 10:47 33.085660 -117.362905 344 6003ft 205kts
13-Oct-11 10:48 33.142060 -117.382886 344 6002ft 215kts
13-Oct-11 10:49 33.200193 -117.403607 344 6004ft 219kts
13-Oct-11 10:50 33.247768 -117.425691 319 5987ft 222kts
13-Oct-11 10:51 33.291650 -117.478151 316 5999ft 223kts
13-Oct-11 10:52 33.336301 -117.530059 316 5999ft 223kts
13-Oct-11 10:53 33.380870 -117.582120 316 5999ft 223kts
13-Oct-11 10:54 33.425534 -117.634392 316 6002ft 223kts
13-Oct-11 10:55 33.470091 -117.686620 316 6007ft 223kts
13-Oct-11 10:56 33.522232 -117.747837 316 6007ft 224kts
13-Oct-11 10:57 33.559420 -117.791563 316 6000ft 224kts
13-Oct-11 10:58 33.604011 -117.844067 316 6000ft 224kts
13-Oct-11 10:59 33.648599 -117.896652 315 6000ft 224kts
13-Oct-11 11:00 33.693039 -117.949498 313 6000ft 224kts
13-Oct-11 11:01 33.735301 -118.005529 312 5999ft 225kts
13-Oct-11 11:02 33.777912 -118.060826 313 5998ft 225kts
13-Oct-11 11:03 33.820701 -118.115981 312 6000ft 225kts
13-Oct-11 11:04 33.862650 -118.170326 312 6006ft 225kts
13-Oct-11 11:05 33.905249 -118.225764 312 6007ft 225kts
13-Oct-11 11:06 33.947882 -118.281249 312 5949ft 225kts
13-Oct-11 11:07 33.991445 -118.337970 311 5356ft 234kts
13-Oct-11 11:08 34.036161 -118.396367 311 4760ft 235kts
13-Oct-11 11:09 34.079659 -118.453161 311 4146ft 215kts
13-Oct-11 11:10 34.116660 -118.501730 310 3995ft 179kts
13-Oct-11 11:11 34.148185 -118.544921 309 4019ft 164kts
13-Oct-11 11:12 34.177923 -118.585972 309 3997ft 158kts
13-Oct-11 11:13 34.197884 -118.630232 274 4002ft 149kts
13-Oct-11 11:14 34.202759 -118.679738 260 3986ft 146kts
13-Oct-11 11:15 34.176660 -118.675531 88 4003ft 152kts
13-Oct-11 11:16 34.198720 -118.630535 68 3979ft 146kts
13-Oct-11 11:17 34.201408 -118.588848 90 3663ft 119kts
13-Oct-11 11:18 34.200535 -118.549145 90 3138ft 115kts
13-Oct-11 11:19 34.199823 -118.510913 89 2998ft 111kts
13-Oct-11 11:20 34.199294 -118.473012 89 2700ft 117kts
13-Oct-11 11:21 34.198762 -118.432284 89 1986ft 118kts
13-Oct-11 11:22 34.198229 -118.393397 89 1262ft 112kts
13-Oct-11 11:23 34.197811 -118.361708 92 782ft 24kts
13-Oct-11 11:24 34.198944 -118.363994 289 782ft 18kts
13-Oct-11 11:25 34.200248 -118.364307 98 782ft 0kts

Navigation Log

Ident Type
Flight plan parsing failed, navigation log unavailable